sensor_id;sensor_type;location;lat;lon;timestamp;P1;durP1;ratioP1;P2;durP2;ratioP2
53056;SDS011;38940;50.096;4.012;2024-01-15T00:00:15;1.63;;;1.33;;
53056;SDS011;38940;50.096;4.012;2024-01-15T00:02:41;0.57;;;0.57;;
53056;SDS011;38940;50.096;4.012;2024-01-15T00:05:07;1.60;;;0.90;;
53056;SDS011;38940;50.096;4.012;2024-01-15T00:07:33;6.00;;;1.65;;
53056;SDS011;38940;50.096;4.012;2024-01-15T00:09:59;4.70;;;1.50;;
53056;SDS011;38940;50.096;4.012;2024-01-15T00:12:25;2.80;;;1.20;;
53056;SDS011;38940;50.096;4.012;2024-01-15T00:14:51;4.20;;;1.43;;
53056;SDS011;38940;50.096;4.012;2024-01-15T00:17:17;1.50;;;0.75;;
53056;SDS011;38940;50.096;4.012;2024-01-15T00:19:43;3.75;;;0.75;;
53056;SDS011;38940;50.096;4.012;2024-01-15T00:22:09;1.65;;;0.82;;
53056;SDS011;38940;50.096;4.012;2024-01-15T00:24:35;2.00;;;0.98;;
53056;SDS011;38940;50.096;4.012;2024-01-15T00:27:02;1.10;;;0.90;;
53056;SDS011;38940;50.096;4.012;2024-01-15T00:29:28;2.80;;;1.00;;
53056;SDS011;38940;50.096;4.012;2024-01-15T00:31:54;1.20;;;1.10;;
53056;SDS011;38940;50.096;4.012;2024-01-15T00:34:20;1.85;;;0.95;;
53056;SDS011;38940;50.096;4.012;2024-01-15T00:36:46;1.98;;;1.27;;
53056;SDS011;38940;50.096;4.012;2024-01-15T00:39:11;1.17;;;0.75;;
53056;SDS011;38940;50.096;4.012;2024-01-15T00:41:38;1.88;;;1.20;;
53056;SDS011;38940;50.096;4.012;2024-01-15T00:44:04;3.08;;;1.48;;
53056;SDS011;38940;50.096;4.012;2024-01-15T00:46:30;3.67;;;1.27;;
53056;SDS011;38940;50.096;4.012;2024-01-15T00:48:56;5.38;;;1.40;;
53056;SDS011;38940;50.096;4.012;2024-01-15T00:51:22;1.47;;;1.00;;
53056;SDS011;38940;50.096;4.012;2024-01-15T00:53:48;3.65;;;1.20;;
53056;SDS011;38940;50.096;4.012;2024-01-15T00:56:14;4.40;;;1.83;;
53056;SDS011;38940;50.096;4.012;2024-01-15T00:58:40;1.50;;;1.17;;
53056;SDS011;38940;50.096;4.012;2024-01-15T01:01:06;2.20;;;0.80;;
53056;SDS011;38940;50.096;4.012;2024-01-15T01:03:32;1.33;;;1.23;;
53056;SDS011;38940;50.096;4.012;2024-01-15T01:05:58;1.00;;;0.90;;
53056;SDS011;38940;50.096;4.012;2024-01-15T01:08:24;1.92;;;0.80;;
53056;SDS011;38940;50.096;4.012;2024-01-15T01:10:50;4.85;;;0.85;;
53056;SDS011;38940;50.096;4.012;2024-01-15T01:13:16;2.25;;;1.02;;
53056;SDS011;38940;50.096;4.012;2024-01-15T01:15:42;1.40;;;0.93;;
53056;SDS011;38940;50.096;4.012;2024-01-15T01:18:08;2.05;;;1.10;;
53056;SDS011;38940;50.096;4.012;2024-01-15T01:20:34;1.80;;;0.87;;
53056;SDS011;38940;50.096;4.012;2024-01-15T01:23:00;4.70;;;1.00;;
53056;SDS011;38940;50.096;4.012;2024-01-15T01:25:26;1.83;;;1.37;;
53056;SDS011;38940;50.096;4.012;2024-01-15T01:27:51;2.38;;;0.88;;
53056;SDS011;38940;50.096;4.012;2024-01-15T01:30:17;0.80;;;0.80;;
53056;SDS011;38940;50.096;4.012;2024-01-15T01:32:43;1.20;;;0.75;;
53056;SDS011;38940;50.096;4.012;2024-01-15T01:35:09;2.13;;;0.95;;
53056;SDS011;38940;50.096;4.012;2024-01-15T01:37:35;1.13;;;0.68;;
53056;SDS011;38940;50.096;4.012;2024-01-15T01:40:01;1.25;;;0.70;;
53056;SDS011;38940;50.096;4.012;2024-01-15T01:42:28;1.50;;;0.85;;
53056;SDS011;38940;50.096;4.012;2024-01-15T01:44:54;1.40;;;1.17;;
53056;SDS011;38940;50.096;4.012;2024-01-15T01:47:20;1.00;;;1.00;;
53056;SDS011;38940;50.096;4.012;2024-01-15T01:49:46;1.60;;;0.50;;
53056;SDS011;38940;50.096;4.012;2024-01-15T01:52:12;1.15;;;0.85;;
53056;SDS011;38940;50.096;4.012;2024-01-15T01:54:39;2.80;;;0.70;;
53056;SDS011;38940;50.096;4.012;2024-01-15T01:57:05;0.50;;;0.50;;
53056;SDS011;38940;50.096;4.012;2024-01-15T01:59:32;1.55;;;0.93;;
53056;SDS011;38940;50.096;4.012;2024-01-15T02:01:59;3.15;;;1.05;;
53056;SDS011;38940;50.096;4.012;2024-01-15T02:04:27;1.25;;;0.63;;
53056;SDS011;38940;50.096;4.012;2024-01-15T02:06:53;0.75;;;0.63;;
53056;SDS011;38940;50.096;4.012;2024-01-15T02:09:19;1.95;;;0.93;;
53056;SDS011;38940;50.096;4.012;2024-01-15T02:11:48;1.70;;;1.00;;
53056;SDS011;38940;50.096;4.012;2024-01-15T02:14:14;1.65;;;0.85;;
53056;SDS011;38940;50.096;4.012;2024-01-15T02:16:40;0.50;;;0.40;;
53056;SDS011;38940;50.096;4.012;2024-01-15T02:19:06;2.75;;;1.05;;
53056;SDS011;38940;50.096;4.012;2024-01-15T02:21:32;1.00;;;0.60;;
53056;SDS011;38940;50.096;4.012;2024-01-15T02:23:58;1.90;;;1.03;;
53056;SDS011;38940;50.096;4.012;2024-01-15T02:26:25;1.73;;;1.17;;
53056;SDS011;38940;50.096;4.012;2024-01-15T02:28:51;1.17;;;0.93;;
53056;SDS011;38940;50.096;4.012;2024-01-15T02:31:17;1.55;;;0.90;;
53056;SDS011;38940;50.096;4.012;2024-01-15T02:33:43;6.72;;;1.60;;
53056;SDS011;38940;50.096;4.012;2024-01-15T02:36:11;3.45;;;1.05;;
53056;SDS011;38940;50.096;4.012;2024-01-15T02:38:37;0.68;;;0.57;;
53056;SDS011;38940;50.096;4.012;2024-01-15T02:41:03;2.00;;;1.23;;
53056;SDS011;38940;50.096;4.012;2024-01-15T02:43:29;0.38;;;0.38;;
53056;SDS011;38940;50.096;4.012;2024-01-15T02:45:55;3.67;;;0.88;;
53056;SDS011;38940;50.096;4.012;2024-01-15T02:48:21;2.42;;;0.90;;
53056;SDS011;38940;50.096;4.012;2024-01-15T02:50:47;1.75;;;0.70;;
53056;SDS011;38940;50.096;4.012;2024-01-15T02:53:13;0.98;;;0.55;;
53056;SDS011;38940;50.096;4.012;2024-01-15T02:55:39;1.17;;;0.77;;
53056;SDS011;38940;50.096;4.012;2024-01-15T02:58:05;1.98;;;0.80;;
53056;SDS011;38940;50.096;4.012;2024-01-15T03:00:31;1.30;;;0.80;;
53056;SDS011;38940;50.096;4.012;2024-01-15T03:02:57;1.15;;;1.02;;
53056;SDS011;38940;50.096;4.012;2024-01-15T03:05:23;1.15;;;0.63;;
53056;SDS011;38940;50.096;4.012;2024-01-15T03:07:49;1.25;;;0.70;;
53056;SDS011;38940;50.096;4.012;2024-01-15T03:10:15;0.60;;;0.50;;
53056;SDS011;38940;50.096;4.012;2024-01-15T03:12:41;2.33;;;0.70;;
53056;SDS011;38940;50.096;4.012;2024-01-15T03:15:07;0.40;;;0.30;;
53056;SDS011;38940;50.096;4.012;2024-01-15T03:17:33;2.22;;;1.13;;
53056;SDS011;38940;50.096;4.012;2024-01-15T03:19:59;4.65;;;0.75;;
53056;SDS011;38940;50.096;4.012;2024-01-15T03:22:25;1.73;;;0.90;;
53056;SDS011;38940;50.096;4.012;2024-01-15T03:24:52;4.63;;;0.77;;
53056;SDS011;38940;50.096;4.012;2024-01-15T03:27:18;0.93;;;0.65;;
53056;SDS011;38940;50.096;4.012;2024-01-15T03:29:44;0.80;;;0.77;;
53056;SDS011;38940;50.096;4.012;2024-01-15T03:32:10;0.50;;;0.50;;
53056;SDS011;38940;50.096;4.012;2024-01-15T03:34:37;1.23;;;0.80;;
53056;SDS011;38940;50.096;4.012;2024-01-15T03:37:03;0.25;;;0.25;;
53056;SDS011;38940;50.096;4.012;2024-01-15T03:39:29;4.15;;;1.00;;
53056;SDS011;38940;50.096;4.012;2024-01-15T03:41:55;0.60;;;0.60;;
53056;SDS011;38940;50.096;4.012;2024-01-15T03:44:21;2.10;;;1.08;;
53056;SDS011;38940;50.096;4.012;2024-01-15T03:46:47;1.05;;;0.68;;
53056;SDS011;38940;50.096;4.012;2024-01-15T03:49:13;1.13;;;1.03;;
53056;SDS011;38940;50.096;4.012;2024-01-15T03:51:39;1.60;;;1.00;;
53056;SDS011;38940;50.096;4.012;2024-01-15T03:54:05;1.58;;;0.90;;
53056;SDS011;38940;50.096;4.012;2024-01-15T03:56:31;2.25;;;0.85;;
53056;SDS011;38940;50.096;4.012;2024-01-15T03:58:57;0.95;;;0.88;;
53056;SDS011;38940;50.096;4.012;2024-01-15T04:01:23;1.15;;;0.80;;
53056;SDS011;38940;50.096;4.012;2024-01-15T04:03:49;1.95;;;0.93;;
53056;SDS011;38940;50.096;4.012;2024-01-15T04:06:15;1.60;;;0.82;;
53056;SDS011;38940;50.096;4.012;2024-01-15T04:08:41;1.77;;;0.95;;
53056;SDS011;38940;50.096;4.012;2024-01-15T04:11:07;3.70;;;2.03;;
53056;SDS011;38940;50.096;4.012;2024-01-15T04:13:33;2.15;;;0.70;;
53056;SDS011;38940;50.096;4.012;2024-01-15T04:15:59;1.48;;;0.93;;
53056;SDS011;38940;50.096;4.012;2024-01-15T04:18:26;2.28;;;0.70;;
53056;SDS011;38940;50.096;4.012;2024-01-15T04:20:52;1.20;;;0.60;;
53056;SDS011;38940;50.096;4.012;2024-01-15T04:23:18;7.00;;;1.10;;
53056;SDS011;38940;50.096;4.012;2024-01-15T04:25:44;0.73;;;0.60;;
53056;SDS011;38940;50.096;4.012;2024-01-15T04:28:11;3.22;;;0.80;;
53056;SDS011;38940;50.096;4.012;2024-01-15T04:30:37;0.65;;;0.57;;
53056;SDS011;38940;50.096;4.012;2024-01-15T04:33:03;2.15;;;0.77;;
53056;SDS011;38940;50.096;4.012;2024-01-15T04:35:30;0.28;;;0.28;;
53056;SDS011;38940;50.096;4.012;2024-01-15T04:37:56;0.90;;;0.90;;
53056;SDS011;38940;50.096;4.012;2024-01-15T04:40:22;0.63;;;0.50;;
53056;SDS011;38940;50.096;4.012;2024-01-15T04:42:48;1.35;;;0.70;;
53056;SDS011;38940;50.096;4.012;2024-01-15T04:45:14;0.60;;;0.50;;
53056;SDS011;38940;50.096;4.012;2024-01-15T04:47:40;1.60;;;0.95;;
53056;SDS011;38940;50.096;4.012;2024-01-15T04:50:07;0.40;;;0.38;;
53056;SDS011;38940;50.096;4.012;2024-01-15T04:52:33;0.75;;;0.75;;
53056;SDS011;38940;50.096;4.012;2024-01-15T04:54:59;3.22;;;0.80;;
53056;SDS011;38940;50.096;4.012;2024-01-15T04:57:25;0.95;;;0.63;;
53056;SDS011;38940;50.096;4.012;2024-01-15T04:59:51;0.70;;;0.70;;
53056;SDS011;38940;50.096;4.012;2024-01-15T05:02:17;0.95;;;0.63;;
53056;SDS011;38940;50.096;4.012;2024-01-15T05:04:43;3.25;;;0.70;;
53056;SDS011;38940;50.096;4.012;2024-01-15T05:07:09;3.10;;;0.80;;
53056;SDS011;38940;50.096;4.012;2024-01-15T05:09:35;0.90;;;0.50;;
53056;SDS011;38940;50.096;4.012;2024-01-15T05:12:01;1.13;;;0.87;;
53056;SDS011;38940;50.096;4.012;2024-01-15T05:14:27;1.43;;;0.63;;
53056;SDS011;38940;50.096;4.012;2024-01-15T05:16:53;0.38;;;0.25;;
53056;SDS011;38940;50.096;4.012;2024-01-15T05:19:19;4.43;;;0.75;;
53056;SDS011;38940;50.096;4.012;2024-01-15T05:21:45;2.03;;;0.82;;
53056;SDS011;38940;50.096;4.012;2024-01-15T05:24:11;3.00;;;0.85;;
53056;SDS011;38940;50.096;4.012;2024-01-15T05:26:37;3.67;;;1.05;;
53056;SDS011;38940;50.096;4.012;2024-01-15T05:29:03;0.50;;;0.47;;
53056;SDS011;38940;50.096;4.012;2024-01-15T05:31:29;3.20;;;0.60;;
53056;SDS011;38940;50.096;4.012;2024-01-15T05:33:55;0.95;;;0.57;;
53056;SDS011;38940;50.096;4.012;2024-01-15T05:36:21;3.08;;;1.13;;
53056;SDS011;38940;50.096;4.012;2024-01-15T05:38:47;2.50;;;0.90;;
53056;SDS011;38940;50.096;4.012;2024-01-15T05:41:14;1.75;;;0.30;;
53056;SDS011;38940;50.096;4.012;2024-01-15T05:43:40;0.75;;;0.60;;
53056;SDS011;38940;50.096;4.012;2024-01-15T05:46:06;3.35;;;0.88;;
53056;SDS011;38940;50.096;4.012;2024-01-15T05:48:32;2.97;;;0.93;;
53056;SDS011;38940;50.096;4.012;2024-01-15T05:50:58;3.22;;;0.50;;
53056;SDS011;38940;50.096;4.012;2024-01-15T05:53:25;0.90;;;0.73;;
53056;SDS011;38940;50.096;4.012;2024-01-15T05:55:52;0.83;;;0.63;;
53056;SDS011;38940;50.096;4.012;2024-01-15T05:58:20;1.15;;;0.98;;
53056;SDS011;38940;50.096;4.012;2024-01-15T06:00:46;1.55;;;0.82;;
53056;SDS011;38940;50.096;4.012;2024-01-15T06:03:14;4.70;;;1.08;;
53056;SDS011;38940;50.096;4.012;2024-01-15T06:05:40;0.57;;;0.52;;
53056;SDS011;38940;50.096;4.012;2024-01-15T06:08:06;2.78;;;1.38;;
53056;SDS011;38940;50.096;4.012;2024-01-15T06:10:32;1.40;;;0.73;;
53056;SDS011;38940;50.096;4.012;2024-01-15T06:12:58;0.80;;;0.80;;
53056;SDS011;38940;50.096;4.012;2024-01-15T06:15:24;0.50;;;0.47;;
53056;SDS011;38940;50.096;4.012;2024-01-15T06:17:50;0.28;;;0.28;;
53056;SDS011;38940;50.096;4.012;2024-01-15T06:20:16;0.77;;;0.40;;
53056;SDS011;38940;50.096;4.012;2024-01-15T06:22:43;0.90;;;0.75;;
53056;SDS011;38940;50.096;4.012;2024-01-15T06:25:09;3.90;;;0.80;;
53056;SDS011;38940;50.096;4.012;2024-01-15T06:27:35;0.52;;;0.40;;
53056;SDS011;38940;50.096;4.012;2024-01-15T06:30:01;1.33;;;0.60;;
53056;SDS011;38940;50.096;4.012;2024-01-15T06:32:27;0.30;;;0.30;;
53056;SDS011;38940;50.096;4.012;2024-01-15T06:34:53;0.70;;;0.50;;
53056;SDS011;38940;50.096;4.012;2024-01-15T06:37:19;1.38;;;0.77;;
53056;SDS011;38940;50.096;4.012;2024-01-15T06:39:45;1.40;;;0.55;;
53056;SDS011;38940;50.096;4.012;2024-01-15T06:42:11;0.65;;;0.57;;
53056;SDS011;38940;50.096;4.012;2024-01-15T06:44:37;1.90;;;0.80;;
53056;SDS011;38940;50.096;4.012;2024-01-15T06:47:05;1.70;;;1.00;;
53056;SDS011;38940;50.096;4.012;2024-01-15T06:49:31;1.00;;;0.88;;
53056;SDS011;38940;50.096;4.012;2024-01-15T06:51:57;1.73;;;0.80;;
53056;SDS011;38940;50.096;4.012;2024-01-15T06:54:23;2.55;;;0.77;;
53056;SDS011;38940;50.096;4.012;2024-01-15T06:56:51;0.90;;;0.70;;
53056;SDS011;38940;50.096;4.012;2024-01-15T06:59:17;1.17;;;0.77;;
53056;SDS011;38940;50.096;4.012;2024-01-15T07:01:43;0.50;;;0.40;;
53056;SDS011;38940;50.096;4.012;2024-01-15T07:04:09;0.98;;;0.65;;
53056;SDS011;38940;50.096;4.012;2024-01-15T07:06:35;0.60;;;0.50;;
53056;SDS011;38940;50.096;4.012;2024-01-15T07:09:01;1.20;;;0.50;;
53056;SDS011;38940;50.096;4.012;2024-01-15T07:11:27;1.83;;;0.67;;
53056;SDS011;38940;50.096;4.012;2024-01-15T07:13:53;2.15;;;0.68;;
53056;SDS011;38940;50.096;4.012;2024-01-15T07:16:19;0.98;;;0.68;;
53056;SDS011;38940;50.096;4.012;2024-01-15T07:18:45;6.70;;;0.80;;
53056;SDS011;38940;50.096;4.012;2024-01-15T07:21:11;0.32;;;0.30;;
53056;SDS011;38940;50.096;4.012;2024-01-15T07:23:37;1.52;;;0.80;;
53056;SDS011;38940;50.096;4.012;2024-01-15T07:26:03;4.90;;;0.73;;
53056;SDS011;38940;50.096;4.012;2024-01-15T07:28:30;2.05;;;0.73;;
53056;SDS011;38940;50.096;4.012;2024-01-15T07:30:56;1.00;;;0.75;;
53056;SDS011;38940;50.096;4.012;2024-01-15T07:33:22;1.27;;;0.60;;
53056;SDS011;38940;50.096;4.012;2024-01-15T07:35:48;0.70;;;0.50;;
53056;SDS011;38940;50.096;4.012;2024-01-15T07:38:14;0.65;;;0.45;;
53056;SDS011;38940;50.096;4.012;2024-01-15T07:40:40;0.70;;;0.70;;
53056;SDS011;38940;50.096;4.012;2024-01-15T07:43:06;0.90;;;0.55;;
53056;SDS011;38940;50.096;4.012;2024-01-15T07:45:33;0.20;;;0.20;;
53056;SDS011;38940;50.096;4.012;2024-01-15T07:47:59;1.47;;;0.57;;
53056;SDS011;38940;50.096;4.012;2024-01-15T07:50:25;1.10;;;0.80;;
53056;SDS011;38940;50.096;4.012;2024-01-15T07:52:51;3.70;;;0.70;;
53056;SDS011;38940;50.096;4.012;2024-01-15T07:55:18;1.92;;;0.82;;
53056;SDS011;38940;50.096;4.012;2024-01-15T07:57:44;1.80;;;0.60;;
53056;SDS011;38940;50.096;4.012;2024-01-15T08:00:11;0.47;;;0.43;;
53056;SDS011;38940;50.096;4.012;2024-01-15T08:02:37;1.10;;;0.38;;
53056;SDS011;38940;50.096;4.012;2024-01-15T08:05:03;2.45;;;1.02;;
53056;SDS011;38940;50.096;4.012;2024-01-15T08:07:29;0.40;;;0.38;;
53056;SDS011;38940;50.096;4.012;2024-01-15T08:09:55;1.20;;;0.63;;
53056;SDS011;38940;50.096;4.012;2024-01-15T08:12:21;0.30;;;0.20;;
53056;SDS011;38940;50.096;4.012;2024-01-15T08:14:47;0.30;;;0.30;;
53056;SDS011;38940;50.096;4.012;2024-01-15T08:17:13;2.80;;;0.47;;
53056;SDS011;38940;50.096;4.012;2024-01-15T08:19:40;1.00;;;0.60;;
53056;SDS011;38940;50.096;4.012;2024-01-15T08:22:06;1.73;;;0.52;;
53056;SDS011;38940;50.096;4.012;2024-01-15T08:24:33;1.75;;;0.35;;
53056;SDS011;38940;50.096;4.012;2024-01-15T08:26:59;2.60;;;0.80;;
53056;SDS011;38940;50.096;4.012;2024-01-15T08:29:25;0.50;;;0.30;;
53056;SDS011;38940;50.096;4.012;2024-01-15T08:31:51;0.15;;;0.13;;
53056;SDS011;38940;50.096;4.012;2024-01-15T08:34:17;1.00;;;0.20;;
53056;SDS011;38940;50.096;4.012;2024-01-15T08:36:43;2.00;;;0.50;;
53056;SDS011;38940;50.096;4.012;2024-01-15T08:39:09;0.60;;;0.45;;
53056;SDS011;38940;50.096;4.012;2024-01-15T08:41:35;1.02;;;0.32;;
53056;SDS011;38940;50.096;4.012;2024-01-15T08:44:01;0.60;;;0.40;;
53056;SDS011;38940;50.096;4.012;2024-01-15T08:46:28;2.95;;;0.68;;
53056;SDS011;38940;50.096;4.012;2024-01-15T08:48:54;0.10;;;0.10;;
53056;SDS011;38940;50.096;4.012;2024-01-15T08:51:20;0.33;;;0.20;;
53056;SDS011;38940;50.096;4.012;2024-01-15T08:53:46;0.50;;;0.37;;
53056;SDS011;38940;50.096;4.012;2024-01-15T08:56:12;0.00;;;0.00;;
53056;SDS011;38940;50.096;4.012;2024-01-15T08:58:38;0.30;;;0.30;;
53056;SDS011;38940;50.096;4.012;2024-01-15T09:01:04;0.17;;;0.17;;
53056;SDS011;38940;50.096;4.012;2024-01-15T09:03:30;0.70;;;0.35;;
53056;SDS011;38940;50.096;4.012;2024-01-15T09:05:57;0.50;;;0.40;;
53056;SDS011;38940;50.096;4.012;2024-01-15T09:08:23;0.80;;;0.60;;
53056;SDS011;38940;50.096;4.012;2024-01-15T09:10:49;1.27;;;0.50;;
53056;SDS011;38940;50.096;4.012;2024-01-15T09:13:15;0.20;;;0.20;;
53056;SDS011;38940;50.096;4.012;2024-01-15T09:15:41;0.80;;;0.40;;
53056;SDS011;38940;50.096;4.012;2024-01-15T09:18:08;1.00;;;0.40;;
53056;SDS011;38940;50.096;4.012;2024-01-15T09:20:34;0.20;;;0.17;;
53056;SDS011;38940;50.096;4.012;2024-01-15T09:23:00;0.30;;;0.30;;
53056;SDS011;38940;50.096;4.012;2024-01-15T09:25:27;0.10;;;0.10;;
53056;SDS011;38940;50.096;4.012;2024-01-15T09:27:54;0.20;;;0.10;;
53056;SDS011;38940;50.096;4.012;2024-01-15T09:30:20;0.40;;;0.30;;
53056;SDS011;38940;50.096;4.012;2024-01-15T09:32:46;0.15;;;0.10;;
53056;SDS011;38940;50.096;4.012;2024-01-15T09:35:12;0.50;;;0.45;;
53056;SDS011;38940;50.096;4.012;2024-01-15T09:37:39;0.20;;;0.10;;
53056;SDS011;38940;50.096;4.012;2024-01-15T09:40:05;0.40;;;0.30;;
53056;SDS011;38940;50.096;4.012;2024-01-15T09:42:32;1.70;;;0.20;;
53056;SDS011;38940;50.096;4.012;2024-01-15T09:44:58;0.35;;;0.15;;
53056;SDS011;38940;50.096;4.012;2024-01-15T09:47:25;0.40;;;0.20;;
53056;SDS011;38940;50.096;4.012;2024-01-15T09:49:51;0.20;;;0.10;;
53056;SDS011;38940;50.096;4.012;2024-01-15T09:52:17;0.20;;;0.20;;
53056;SDS011;38940;50.096;4.012;2024-01-15T09:54:45;0.10;;;0.10;;
53056;SDS011;38940;50.096;4.012;2024-01-15T09:57:12;0.65;;;0.30;;
53056;SDS011;38940;50.096;4.012;2024-01-15T09:59:38;0.27;;;0.27;;
53056;SDS011;38940;50.096;4.012;2024-01-15T10:02:06;1.60;;;0.63;;
53056;SDS011;38940;50.096;4.012;2024-01-15T10:04:33;0.90;;;0.40;;
53056;SDS011;38940;50.096;4.012;2024-01-15T10:06:59;1.30;;;0.30;;
53056;SDS011;38940;50.096;4.012;2024-01-15T10:09:26;0.68;;;0.38;;
53056;SDS011;38940;50.096;4.012;2024-01-15T10:11:52;0.20;;;0.20;;
53056;SDS011;38940;50.096;4.012;2024-01-15T10:14:19;0.30;;;0.20;;
53056;SDS011;38940;50.096;4.012;2024-01-15T10:16:45;0.10;;;0.10;;
53056;SDS011;38940;50.096;4.012;2024-01-15T10:19:11;0.85;;;0.25;;
53056;SDS011;38940;50.096;4.012;2024-01-15T10:21:37;0.30;;;0.20;;
53056;SDS011;38940;50.096;4.012;2024-01-15T10:24:04;0.53;;;0.50;;
53056;SDS011;38940;50.096;4.012;2024-01-15T10:26:30;0.20;;;0.20;;
53056;SDS011;38940;50.096;4.012;2024-01-15T10:28:58;0.10;;;0.10;;
53056;SDS011;38940;50.096;4.012;2024-01-15T10:31:25;0.35;;;0.13;;
53056;SDS011;38940;50.096;4.012;2024-01-15T10:33:51;0.70;;;0.40;;
53056;SDS011;38940;50.096;4.012;2024-01-15T10:36:17;0.45;;;0.30;;
53056;SDS011;38940;50.096;4.012;2024-01-15T10:38:43;0.20;;;0.20;;
53056;SDS011;38940;50.096;4.012;2024-01-15T10:41:10;0.10;;;0.10;;
53056;SDS011;38940;50.096;4.012;2024-01-15T10:43:36;0.37;;;0.37;;
53056;SDS011;38940;50.096;4.012;2024-01-15T10:46:02;3.20;;;0.50;;
53056;SDS011;38940;50.096;4.012;2024-01-15T10:48:28;0.38;;;0.28;;
53056;SDS011;38940;50.096;4.012;2024-01-15T10:50:56;0.10;;;0.10;;
53056;SDS011;38940;50.096;4.012;2024-01-15T10:53:22;0.50;;;0.20;;
53056;SDS011;38940;50.096;4.012;2024-01-15T10:55:50;0.93;;;0.30;;
53056;SDS011;38940;50.096;4.012;2024-01-15T10:58:16;0.10;;;0.10;;
53056;SDS011;38940;50.096;4.012;2024-01-15T11:00:43;0.10;;;0.10;;
53056;SDS011;38940;50.096;4.012;2024-01-15T11:03:09;0.33;;;0.23;;
53056;SDS011;38940;50.096;4.012;2024-01-15T11:05:39;0.00;;;0.00;;
53056;SDS011;38940;50.096;4.012;2024-01-15T11:08:06;0.80;;;0.20;;
53056;SDS011;38940;50.096;4.012;2024-01-15T11:13:41;9.10;;;1.10;;
53056;SDS011;38940;50.096;4.012;2024-01-15T11:16:08;0.20;;;0.20;;
53056;SDS011;38940;50.096;4.012;2024-01-15T11:18:35;3.90;;;0.30;;
53056;SDS011;38940;50.096;4.012;2024-01-15T11:23:45;0.20;;;0.20;;
53056;SDS011;38940;50.096;4.012;2024-01-15T11:26:31;0.40;;;0.40;;
53056;SDS011;38940;50.096;4.012;2024-01-15T11:28:58;0.40;;;0.20;;
53056;SDS011;38940;50.096;4.012;2024-01-15T11:31:26;0.25;;;0.17;;
53056;SDS011;38940;50.096;4.012;2024-01-15T11:33:52;12.75;;;0.68;;
53056;SDS011;38940;50.096;4.012;2024-01-15T11:36:18;0.38;;;0.13;;
53056;SDS011;38940;50.096;4.012;2024-01-15T11:38:44;0.00;;;0.00;;
53056;SDS011;38940;50.096;4.012;2024-01-15T11:41:13;0.10;;;0.10;;
53056;SDS011;38940;50.096;4.012;2024-01-15T11:43:41;0.30;;;0.20;;
53056;SDS011;38940;50.096;4.012;2024-01-15T11:46:11;0.00;;;0.00;;
53056;SDS011;38940;50.096;4.012;2024-01-15T11:48:44;0.10;;;0.10;;
53056;SDS011;38940;50.096;4.012;2024-01-15T11:51:11;0.10;;;0.10;;
53056;SDS011;38940;50.096;4.012;2024-01-15T11:53:43;0.00;;;0.00;;
53056;SDS011;38940;50.096;4.012;2024-01-15T11:56:19;0.10;;;0.10;;
53056;SDS011;38940;50.096;4.012;2024-01-15T11:58:48;0.00;;;0.00;;
53056;SDS011;38940;50.096;4.012;2024-01-15T12:01:15;0.22;;;0.10;;
53056;SDS011;38940;50.096;4.012;2024-01-15T12:03:41;0.20;;;0.20;;
53056;SDS011;38940;50.096;4.012;2024-01-15T12:06:08;0.95;;;0.50;;
53056;SDS011;38940;50.096;4.012;2024-01-15T12:08:35;0.10;;;0.10;;
53056;SDS011;38940;50.096;4.012;2024-01-15T12:11:03;0.17;;;0.17;;
53056;SDS011;38940;50.096;4.012;2024-01-15T12:13:32;0.40;;;0.10;;
53056;SDS011;38940;50.096;4.012;2024-01-15T12:15:59;0.10;;;0.10;;
53056;SDS011;38940;50.096;4.012;2024-01-15T12:18:29;0.20;;;0.17;;
53056;SDS011;38940;50.096;4.012;2024-01-15T12:20:55;0.07;;;0.07;;
53056;SDS011;38940;50.096;4.012;2024-01-15T12:23:21;0.07;;;0.07;;
53056;SDS011;38940;50.096;4.012;2024-01-15T12:25:47;0.10;;;0.10;;
53056;SDS011;38940;50.096;4.012;2024-01-15T12:28:13;0.20;;;0.20;;
53056;SDS011;38940;50.096;4.012;2024-01-15T12:30:40;0.20;;;0.13;;
53056;SDS011;38940;50.096;4.012;2024-01-15T12:33:07;0.00;;;0.00;;
53056;SDS011;38940;50.096;4.012;2024-01-15T12:35:33;0.00;;;0.00;;
53056;SDS011;38940;50.096;4.012;2024-01-15T12:38:00;0.10;;;0.10;;
53056;SDS011;38940;50.096;4.012;2024-01-15T12:40:30;0.20;;;0.20;;
53056;SDS011;38940;50.096;4.012;2024-01-15T12:42:56;0.20;;;0.20;;
53056;SDS011;38940;50.096;4.012;2024-01-15T12:45:23;0.05;;;0.05;;
53056;SDS011;38940;50.096;4.012;2024-01-15T12:47:49;0.03;;;0.03;;
53056;SDS011;38940;50.096;4.012;2024-01-15T12:50:16;0.20;;;0.20;;
53056;SDS011;38940;50.096;4.012;2024-01-15T12:52:42;0.00;;;0.00;;
53056;SDS011;38940;50.096;4.012;2024-01-15T12:55:08;0.40;;;0.20;;
53056;SDS011;38940;50.096;4.012;2024-01-15T12:57:35;0.10;;;0.10;;
53056;SDS011;38940;50.096;4.012;2024-01-15T13:00:01;2.92;;;0.13;;
53056;SDS011;38940;50.096;4.012;2024-01-15T13:02:31;1.17;;;0.17;;
53056;SDS011;38940;50.096;4.012;2024-01-15T13:04:58;0.10;;;0.10;;
53056;SDS011;38940;50.096;4.012;2024-01-15T13:07:24;0.08;;;0.00;;
53056;SDS011;38940;50.096;4.012;2024-01-15T13:09:50;0.00;;;0.00;;
53056;SDS011;38940;50.096;4.012;2024-01-15T13:12:18;0.10;;;0.10;;
53056;SDS011;38940;50.096;4.012;2024-01-15T13:14:45;0.10;;;0.10;;
53056;SDS011;38940;50.096;4.012;2024-01-15T13:17:12;0.00;;;0.00;;
53056;SDS011;38940;50.096;4.012;2024-01-15T13:19:39;0.00;;;0.00;;
53056;SDS011;38940;50.096;4.012;2024-01-15T13:22:05;0.50;;;0.25;;
53056;SDS011;38940;50.096;4.012;2024-01-15T13:24:34;0.10;;;0.05;;
53056;SDS011;38940;50.096;4.012;2024-01-15T13:27:01;0.05;;;0.05;;
53056;SDS011;38940;50.096;4.012;2024-01-15T13:29:29;0.60;;;0.10;;
53056;SDS011;38940;50.096;4.012;2024-01-15T13:31:55;0.15;;;0.13;;
53056;SDS011;38940;50.096;4.012;2024-01-15T13:34:21;0.45;;;0.08;;
53056;SDS011;38940;50.096;4.012;2024-01-15T13:36:47;0.00;;;0.00;;
53056;SDS011;38940;50.096;4.012;2024-01-15T13:39:13;0.10;;;0.10;;
53056;SDS011;38940;50.096;4.012;2024-01-15T13:41:39;0.10;;;0.10;;
53056;SDS011;38940;50.096;4.012;2024-01-15T13:44:05;0.30;;;0.20;;
53056;SDS011;38940;50.096;4.012;2024-01-15T13:46:31;0.10;;;0.10;;
53056;SDS011;38940;50.096;4.012;2024-01-15T13:48:57;0.40;;;0.10;;
53056;SDS011;38940;50.096;4.012;2024-01-15T13:51:23;0.30;;;0.20;;
53056;SDS011;38940;50.096;4.012;2024-01-15T13:53:49;0.08;;;0.08;;
53056;SDS011;38940;50.096;4.012;2024-01-15T13:56:15;0.00;;;0.00;;
53056;SDS011;38940;50.096;4.012;2024-01-15T13:58:41;0.00;;;0.00;;
53056;SDS011;38940;50.096;4.012;2024-01-15T14:01:08;0.35;;;0.35;;
53056;SDS011;38940;50.096;4.012;2024-01-15T14:03:34;0.00;;;0.00;;
53056;SDS011;38940;50.096;4.012;2024-01-15T14:06:00;0.20;;;0.20;;
53056;SDS011;38940;50.096;4.012;2024-01-15T14:08:33;0.10;;;0.10;;
53056;SDS011;38940;50.096;4.012;2024-01-15T14:10:59;0.30;;;0.20;;
53056;SDS011;38940;50.096;4.012;2024-01-15T14:13:26;0.00;;;0.00;;
53056;SDS011;38940;50.096;4.012;2024-01-15T14:15:52;0.00;;;0.00;;
53056;SDS011;38940;50.096;4.012;2024-01-15T14:18:18;1.10;;;0.20;;
53056;SDS011;38940;50.096;4.012;2024-01-15T14:20:44;0.30;;;0.20;;
53056;SDS011;38940;50.096;4.012;2024-01-15T14:23:10;0.40;;;0.20;;
53056;SDS011;38940;50.096;4.012;2024-01-15T14:25:36;0.10;;;0.10;;
53056;SDS011;38940;50.096;4.012;2024-01-15T14:28:02;0.00;;;0.00;;
53056;SDS011;38940;50.096;4.012;2024-01-15T14:30:28;0.10;;;0.10;;
53056;SDS011;38940;50.096;4.012;2024-01-15T14:32:54;0.50;;;0.10;;
53056;SDS011;38940;50.096;4.012;2024-01-15T14:35:21;0.00;;;0.00;;
53056;SDS011;38940;50.096;4.012;2024-01-15T14:37:47;0.60;;;0.30;;
53056;SDS011;38940;50.096;4.012;2024-01-15T14:40:13;0.00;;;0.00;;
53056;SDS011;38940;50.096;4.012;2024-01-15T14:42:43;0.10;;;0.00;;
53056;SDS011;38940;50.096;4.012;2024-01-15T14:45:09;0.00;;;0.00;;
53056;SDS011;38940;50.096;4.012;2024-01-15T14:47:38;0.40;;;0.20;;